Time;durP1;ratioP1;P1;durP2;ratioP2;P2;SDS_P1;SDS_P2;PMS_P1;PMS_P2;Temp;Humidity;BMP_temperature;BMP_pressure;BME280_temperature;BME280_humidity;BME280_pressure;Samples;Min_cycle;Max_cycle;Signal;HPM_P1;HPM_P2
2022/10/07 00:01:18;;;;;;;;;;;11.00;99.90;;;;;;4990702;28;19937;-66
2022/10/07 00:03:44;;;;;;;;;;;11.00;99.90;;;;;;4991819;28;20286;-67
2022/10/07 00:06:13;;;;;;;;;;;11.00;99.90;;;;;;4991357;28;19925;-73
2022/10/07 00:08:40;;;;;;;;;;;11.00;99.90;;;;;;4990625;28;20027;-67
2022/10/07 00:11:07;;;;;;;;;;;11.00;99.90;;;;;;4992053;28;20322;-67
2022/10/07 00:13:33;;;;;;;;;;;11.00;99.90;;;;;;4991843;28;19933;-66
2022/10/07 00:16:02;;;;;;;;;;;11.00;99.90;;;;;;4974263;28;19926;-66
2022/10/07 00:18:28;;;;;;;;;;;11.00;99.90;;;;;;4990412;28;20260;-67
2022/10/07 00:20:53;;;;;;;;;;;10.90;99.90;;;;;;4990569;28;19979;-66
2022/10/07 00:23:19;;;;;;;;;;;11.00;99.90;;;;;;4991327;28;19930;-66
2022/10/07 00:25:45;;;;;;;;;;;10.90;99.90;;;;;;4991357;28;20356;-66
2022/10/07 00:28:10;;;;;;;;;;;10.90;99.90;;;;;;4989300;28;19926;-74
2022/10/07 00:30:36;;;;;;;;;;;10.90;99.90;;;;;;5022865;28;20028;-66
2022/10/07 00:33:01;;;;;;;;;;;10.90;99.90;;;;;;4990388;28;20440;-67
2022/10/07 00:35:27;;;;;;;;;;;10.90;99.90;;;;;;4991197;28;19926;-67
2022/10/07 00:37:52;;;;;;;;;;;10.90;99.90;;;;;;4991290;28;19949;-67
2022/10/07 00:40:18;;;;;;;;;;;10.90;99.90;;;;;;4989900;28;20382;-66
2022/10/07 00:42:44;;;;;;;;;;;10.90;99.90;;;;;;4990498;28;20024;-66
2022/10/07 00:45:13;;;;;;;;;;;10.90;99.90;;;;;;4991290;28;19932;-66
2022/10/07 00:47:40;;;;;;;;;;;10.80;99.90;;;;;;4990915;28;19926;-66
2022/10/07 00:50:08;;;;;;;;;;;10.90;99.90;;;;;;4991149;28;19930;-66
2022/10/07 00:52:36;;;;;;;;;;;10.80;99.90;;;;;;4989965;28;19982;-66
2022/10/07 00:55:04;;;;;;;;;;;10.80;99.90;;;;;;4991098;28;19957;-66
2022/10/07 00:57:31;;;;;;;;;;;10.80;99.90;;;;;;4990771;28;19933;-66
2022/10/07 00:59:57;;;;;;;;;;;10.70;99.90;;;;;;4991111;28;19929;-67
2022/10/07 01:02:24;;;;;;;;;;;10.70;99.90;;;;;;4989532;28;19926;-66
2022/10/07 01:04:50;;;;;;;;;;;10.80;99.90;;;;;;4990044;28;19932;-67
2022/10/07 01:07:19;;;;;;;;;;;10.70;99.90;;;;;;4990952;28;19934;-71
2022/10/07 01:09:45;;;;;;;;;;;10.70;99.90;;;;;;4990918;28;19976;-66
2022/10/07 01:12:18;;;;;;;;;;;10.70;99.90;;;;;;4989875;28;19930;-69
2022/10/07 01:14:44;;;;;;;;;;;10.70;99.90;;;;;;4991370;28;19979;-67
2022/10/07 01:17:14;;;;;;;;;;;10.70;99.90;;;;;;4990973;28;19926;-66
2022/10/07 01:19:43;;;;;;;;;;;10.70;99.90;;;;;;4990508;28;19929;-66
2022/10/07 01:22:23;;;;;;;;;;;10.60;99.90;;;;;;4990401;28;19987;-66
2022/10/07 01:25:17;;;;;;;;;;;10.60;99.90;;;;;;4990842;28;19988;-66
2022/10/07 01:27:48;;;;;;;;;;;10.60;99.90;;;;;;4990368;28;19961;-66
2022/10/07 01:30:14;;;;;;;;;;;10.60;99.90;;;;;;5022201;28;19926;-66
2022/10/07 01:32:41;;;;;;;;;;;10.60;99.90;;;;;;4990147;28;20046;-67
2022/10/07 01:35:09;;;;;;;;;;;10.50;99.90;;;;;;4990022;28;19926;-67
2022/10/07 01:37:39;;;;;;;;;;;10.60;99.90;;;;;;4989616;28;20398;-66
2022/10/07 01:40:13;;;;;;;;;;;10.60;99.90;;;;;;4989320;28;19926;-66
2022/10/07 01:42:39;;;;;;;;;;;10.50;99.90;;;;;;4989699;28;20388;-66
2022/10/07 01:45:05;;;;;;;;;;;10.50;99.90;;;;;;5005858;28;19926;-66
2022/10/07 01:47:32;;;;;;;;;;;10.50;99.90;;;;;;4988578;28;20283;-67
2022/10/07 01:49:57;;;;;;;;;;;10.50;99.90;;;;;;4990524;28;19925;-69
2022/10/07 01:52:29;;;;;;;;;;;10.40;99.90;;;;;;4990119;28;20499;-74
2022/10/07 01:55:06;;;;;;;;;;;10.40;99.90;;;;;;4989710;28;19926;-66
2022/10/07 01:57:37;;;;;;;;;;;10.40;99.90;;;;;;4989831;28;20328;-66
2022/10/07 02:00:08;;;;;;;;;;;10.40;99.90;;;;;;4990134;28;19973;-66
2022/10/07 02:02:34;;;;;;;;;;;10.40;99.90;;;;;;4989818;28;19973;-67
2022/10/07 02:05:15;;;;;;;;;;;10.40;99.90;;;;;;4989785;28;19930;-66
2022/10/07 02:07:43;;;;;;;;;;;10.30;99.90;;;;;;4989649;28;19926;-66
2022/10/07 02:10:09;;;;;;;;;;;10.30;99.90;;;;;;4989807;28;20020;-69
2022/10/07 02:12:50;;;;;;;;;;;10.30;99.90;;;;;;4989390;28;19973;-69
2022/10/07 02:15:18;;;;;;;;;;;10.30;99.90;;;;;;4989826;28;20336;-68
2022/10/07 02:17:50;;;;;;;;;;;10.30;99.90;;;;;;4989654;28;19926;-65
2022/10/07 02:20:18;;;;;;;;;;;10.30;99.90;;;;;;4988672;28;19937;-65
2022/10/07 02:22:45;;;;;;;;;;;10.20;99.90;;;;;;4988982;28;20020;-68
2022/10/07 02:25:12;;;;;;;;;;;10.20;99.90;;;;;;4988909;28;19993;-69
2022/10/07 02:27:38;;;;;;;;;;;10.20;99.90;;;;;;4989421;28;19942;-67
2022/10/07 02:30:06;;;;;;;;;;;10.10;99.90;;;;;;4989913;28;20282;-68
2022/10/07 02:32:33;;;;;;;;;;;10.10;99.90;;;;;;4989561;28;19926;-75
2022/10/07 02:35:02;;;;;;;;;;;10.10;99.90;;;;;;4989688;28;19932;-68
2022/10/07 02:37:30;;;;;;;;;;;10.10;99.90;;;;;;4989791;28;19981;-68
2022/10/07 02:39:56;;;;;;;;;;;10.10;99.90;;;;;;4988461;28;19930;-67
2022/10/07 02:42:29;;;;;;;;;;;10.10;99.90;;;;;;5021582;28;20390;-69
2022/10/07 02:44:59;;;;;;;;;;;10.10;99.90;;;;;;4989724;28;19987;-67
2022/10/07 02:47:36;;;;;;;;;;;10.00;99.90;;;;;;4989244;28;19933;-68
2022/10/07 02:50:04;;;;;;;;;;;10.00;99.90;;;;;;4988634;28;19973;-68
2022/10/07 02:52:30;;;;;;;;;;;10.00;99.90;;;;;;4992377;28;20267;-68
2022/10/07 02:54:59;;;;;;;;;;;10.00;99.90;;;;;;4991326;28;19937;-68
2022/10/07 02:57:26;;;;;;;;;;;9.90;99.90;;;;;;4992914;28;19926;-67
2022/10/07 02:59:52;;;;;;;;;;;9.90;99.90;;;;;;4992572;28;20163;-67
2022/10/07 03:02:26;;;;;;;;;;;9.90;99.90;;;;;;4991800;28;19932;-68
2022/10/07 03:04:52;;;;;;;;;;;9.90;99.90;;;;;;4991516;28;19925;-67
2022/10/07 03:07:18;;;;;;;;;;;9.90;99.90;;;;;;4992833;28;19933;-67
2022/10/07 03:09:44;;;;;;;;;;;9.90;99.90;;;;;;4991731;28;19926;-67
2022/10/07 03:12:09;;;;;;;;;;;9.90;99.90;;;;;;4991914;28;20283;-66
2022/10/07 03:14:36;;;;;;;;;;;9.90;99.90;;;;;;4992436;28;19925;-74
2022/10/07 03:17:01;;;;;;;;;;;9.90;99.90;;;;;;4992695;28;19929;-66
2022/10/07 03:19:27;;;;;;;;;;;9.90;99.90;;;;;;4991334;28;19932;-69
2022/10/07 03:21:55;;;;;;;;;;;9.90;99.90;;;;;;4990915;28;19926;-67
2022/10/07 03:24:21;;;;;;;;;;;9.90;99.90;;;;;;4992720;28;20021;-66
2022/10/07 03:26:46;;;;;;;;;;;9.90;99.90;;;;;;4991058;28;20472;-66
2022/10/07 03:29:12;;;;;;;;;;;9.90;99.90;;;;;;4975439;28;19975;-65
2022/10/07 03:31:39;;;;;;;;;;;9.90;99.90;;;;;;4991108;28;19926;-73
2022/10/07 03:34:05;;;;;;;;;;;9.80;99.90;;;;;;4991772;28;19932;-66
2022/10/07 03:36:30;;;;;;;;;;;9.80;99.90;;;;;;4991595;28;19926;-65
2022/10/07 03:38:57;;;;;;;;;;;9.80;99.90;;;;;;4991031;28;20329;-65
2022/10/07 03:41:23;;;;;;;;;;;9.80;99.90;;;;;;4991213;28;19941;-67
2022/10/07 03:43:48;;;;;;;;;;;9.80;99.90;;;;;;4992113;28;19926;-67
2022/10/07 03:46:15;;;;;;;;;;;9.80;99.90;;;;;;4992382;28;20067;-67
2022/10/07 03:48:40;;;;;;;;;;;9.80;99.90;;;;;;4991918;28;19926;-74
2022/10/07 03:51:06;;;;;;;;;;;9.80;99.90;;;;;;4992367;28;19930;-69
2022/10/07 03:53:31;;;;;;;;;;;9.80;99.90;;;;;;4992547;28;20416;-67
2022/10/07 03:55:57;;;;;;;;;;;9.80;99.90;;;;;;4991964;28;20005;-68
2022/10/07 03:58:23;;;;;;;;;;;9.80;99.90;;;;;;4991154;28;19926;-66
2022/10/07 04:00:48;;;;;;;;;;;9.80;99.90;;;;;;4991703;28;20286;-66
2022/10/07 04:03:14;;;;;;;;;;;9.80;99.90;;;;;;4973791;28;19926;-66
2022/10/07 04:05:40;;;;;;;;;;;9.70;99.90;;;;;;4992114;28;19932;-68
2022/10/07 04:08:05;;;;;;;;;;;9.70;99.90;;;;;;4991701;28;20016;-67
2022/10/07 04:10:33;;;;;;;;;;;9.70;99.90;;;;;;4991926;28;20382;-66
2022/10/07 04:12:59;;;;;;;;;;;9.70;99.90;;;;;;4991474;28;19925;-67
2022/10/07 04:15:25;;;;;;;;;;;9.70;99.90;;;;;;4974668;28;20317;-66
2022/10/07 04:17:53;;;;;;;;;;;9.70;99.90;;;;;;4991473;28;19934;-66
2022/10/07 04:20:18;;;;;;;;;;;9.70;99.90;;;;;;4991924;28;19930;-66
2022/10/07 04:22:44;;;;;;;;;;;9.70;99.90;;;;;;4990636;28;19933;-67
2022/10/07 04:27:56;;;;;;;;;;;9.70;99.90;;;;;;4991627;28;19987;-67
2022/10/07 04:30:22;;;;;;;;;;;9.70;99.90;;;;;;4991539;28;19926;-67
2022/10/07 04:32:49;;;;;;;;;;;9.70;99.90;;;;;;4990510;28;20016;-75
2022/10/07 04:35:21;;;;;;;;;;;9.70;99.90;;;;;;4990527;28;20302;-66
2022/10/07 04:37:47;;;;;;;;;;;9.70;99.90;;;;;;4991308;28;20017;-73
2022/10/07 04:40:13;;;;;;;;;;;9.70;99.90;;;;;;4991300;28;19934;-66
2022/10/07 04:45:24;;;;;;;;;;;9.60;99.90;;;;;;4991489;28;19933;-66
2022/10/07 04:47:49;;;;;;;;;;;9.60;99.90;;;;;;5022594;28;20295;-74
2022/10/07 04:50:15;;;;;;;;;;;9.40;99.90;;;;;;4991138;28;19926;-68
2022/10/07 04:52:41;;;;;;;;;;;9.60;99.90;;;;;;4990084;28;19933;-66
2022/10/07 04:55:07;;;;;;;;;;;9.60;99.90;;;;;;4989502;28;19965;-67
2022/10/07 04:57:33;;;;;;;;;;;9.60;99.90;;;;;;4990915;28;20014;-67
2022/10/07 05:00:00;;;;;;;;;;;9.60;99.90;;;;;;4990528;28;20032;-67
2022/10/07 05:02:26;;;;;;;;;;;9.60;99.90;;;;;;4990798;28;20033;-67
2022/10/07 05:04:52;;;;;;;;;;;9.60;99.90;;;;;;4990666;28;19969;-74
2022/10/07 05:07:17;;;;;;;;;;;9.60;99.90;;;;;;4989560;28;19926;-67
2022/10/07 05:09:43;;;;;;;;;;;9.50;99.90;;;;;;4990968;28;19932;-67
2022/10/07 05:12:09;;;;;;;;;;;9.50;99.90;;;;;;4990786;28;20374;-69
2022/10/07 05:14:34;;;;;;;;;;;9.60;99.90;;;;;;4989786;28;19930;-68
2022/10/07 05:17:00;;;;;;;;;;;9.50;99.90;;;;;;4990448;28;19952;-67
2022/10/07 05:19:25;;;;;;;;;;;9.50;99.90;;;;;;4990945;28;19976;-67
2022/10/07 05:21:51;;;;;;;;;;;9.50;99.90;;;;;;4989518;28;19925;-66
2022/10/07 05:24:16;;;;;;;;;;;9.50;99.90;;;;;;4989050;28;20288;-66
2022/10/07 05:26:42;;;;;;;;;;;9.50;99.90;;;;;;4989413;28;19926;-66
2022/10/07 05:29:08;;;;;;;;;;;9.50;99.90;;;;;;4990275;28;19971;-68
2022/10/07 05:31:33;;;;;;;;;;;9.40;99.90;;;;;;4989704;28;19948;-66
2022/10/07 05:33:59;;;;;;;;;;;9.50;99.90;;;;;;4990110;28;19933;-66
2022/10/07 05:36:25;;;;;;;;;;;9.50;99.90;;;;;;4989289;28;19976;-67
2022/10/07 05:38:57;;;;;;;;;;;9.50;99.90;;;;;;4990048;28;19933;-66
2022/10/07 05:41:22;;;;;;;;;;;9.50;99.90;;;;;;4990247;28;19926;-68
2022/10/07 05:43:48;;;;;;;;;;;9.50;99.90;;;;;;4988835;28;19926;-66
2022/10/07 05:46:15;;;;;;;;;;;9.50;99.90;;;;;;4989871;28;19932;-67
2022/10/07 05:48:44;;;;;;;;;;;9.50;99.90;;;;;;4990024;28;19926;-70
2022/10/07 05:51:10;;;;;;;;;;;9.50;99.90;;;;;;4989785;28;20383;-67
2022/10/07 05:53:39;;;;;;;;;;;9.50;99.90;;;;;;4989064;28;20028;-67
2022/10/07 05:56:06;;;;;;;;;;;9.60;99.90;;;;;;4989297;28;19926;-66
2022/10/07 05:58:34;;;;;;;;;;;9.50;99.90;;;;;;5022018;28;19933;-67
2022/10/07 06:00:59;;;;;;;;;;;9.50;99.90;;;;;;4990127;28;20349;-76
2022/10/07 06:03:25;;;;;;;;;;;9.70;99.90;;;;;;4956409;28;19925;-67
2022/10/07 06:05:51;;;;;;;;;;;9.60;99.90;;;;;;4990019;28;20382;-68
2022/10/07 06:08:18;;;;;;;;;;;9.60;99.90;;;;;;4990017;28;19929;-67
2022/10/07 06:13:49;;;;;;;;;;;9.60;99.90;;;;;;4968038;28;20395;-68
2022/10/07 06:16:15;;;;;;;;;;;9.70;99.90;;;;;;4967670;28;20000;-67
2022/10/07 06:18:40;;;;;;;;;;;9.70;99.90;;;;;;4978113;28;20382;-68
2022/10/07 06:21:06;;;;;;;;;;;9.70;99.90;;;;;;4989648;28;19975;-67
2022/10/07 06:23:33;;;;;;;;;;;9.90;99.90;;;;;;4990036;28;20028;-68
2022/10/07 06:26:03;;;;;;;;;;;9.90;99.90;;;;;;4990905;28;19925;-68
2022/10/07 06:28:39;;;;;;;;;;;9.90;99.90;;;;;;4976256;28;19925;-67
2022/10/07 06:31:05;;;;;;;;;;;9.90;99.90;;;;;;4991897;28;19979;-75
2022/10/07 06:33:31;;;;;;;;;;;9.90;99.90;;;;;;5024976;28;20012;-69
2022/10/07 06:36:00;;;;;;;;;;;10.00;99.90;;;;;;4993227;28;19932;-68
2022/10/07 06:38:25;;;;;;;;;;;10.10;99.90;;;;;;4993008;28;20061;-68
2022/10/07 06:40:57;;;;;;;;;;;10.10;99.90;;;;;;4993295;28;19962;-76
2022/10/07 06:43:30;;;;;;;;;;;10.10;99.90;;;;;;4976300;28;20019;-73
2022/10/07 06:46:01;;;;;;;;;;;10.20;99.90;;;;;;4976010;28;19930;-72
2022/10/07 06:48:27;;;;;;;;;;;10.20;99.90;;;;;;4992756;28;19926;-72
2022/10/07 06:50:53;;;;;;;;;;;10.30;99.90;;;;;;4992975;28;19926;-73
2022/10/07 06:53:19;;;;;;;;;;;10.30;99.90;;;;;;4991720;28;20383;-74
2022/10/07 06:55:45;;;;;;;;;;;10.40;99.90;;;;;;4993099;28;20002;-73
2022/10/07 06:58:11;;;;;;;;;;;10.50;99.90;;;;;;4975540;28;19930;-76
2022/10/07 07:00:37;;;;;;;;;;;10.60;99.90;;;;;;4993158;28;19930;-75
2022/10/07 07:03:03;;;;;;;;;;;10.60;99.90;;;;;;4992028;28;19949;-74
2022/10/07 07:05:33;;;;;;;;;;;10.70;99.90;;;;;;4991447;28;19932;-73
2022/10/07 07:07:59;;;;;;;;;;;10.80;99.90;;;;;;4993010;28;19926;-74
2022/10/07 07:10:25;;;;;;;;;;;10.90;99.90;;;;;;4991666;28;19932;-73
2022/10/07 07:12:54;;;;;;;;;;;11.00;99.90;;;;;;4992314;28;19926;-74
2022/10/07 07:15:20;;;;;;;;;;;11.10;99.90;;;;;;4977256;28;20020;-77
2022/10/07 07:17:46;;;;;;;;;;;11.20;99.90;;;;;;4995442;28;19981;-75
2022/10/07 07:20:12;;;;;;;;;;;11.40;99.90;;;;;;5008986;28;19925;-80
2022/10/07 07:22:38;;;;;;;;;;;11.60;99.90;;;;;;4991459;28;19926;-74
2022/10/07 07:25:03;;;;;;;;;;;11.80;99.90;;;;;;4991814;28;19933;-75
2022/10/07 07:27:29;;;;;;;;;;;12.00;99.90;;;;;;5006990;28;19925;-73
2022/10/07 07:29:56;;;;;;;;;;;12.30;99.90;;;;;;4991297;28;19948;-74
2022/10/07 07:32:22;;;;;;;;;;;12.90;99.90;;;;;;4991173;28;19994;-74
2022/10/07 07:34:47;;;;;;;;;;;13.70;99.90;;;;;;4991435;28;19979;-74
2022/10/07 07:37:13;;;;;;;;;;;;;;;;;;4974809;28;19926;-80
2022/10/07 07:39:39;;;;;;;;;;;14.40;99.90;;;;;;4991151;28;19925;-75
2022/10/07 07:42:05;;;;;;;;;;;15.90;99.90;;;;;;4975335;28;19929;-74
2022/10/07 07:44:30;;;;;;;;;;;16.50;99.90;;;;;;4992159;28;19925;-75
2022/10/07 07:46:56;;;;;;;;;;;17.00;99.90;;;;;;4992110;28;19929;-72
2022/10/07 07:49:22;;;;;;;;;;;17.40;99.90;;;;;;4991907;28;19925;-74
2022/10/07 07:51:48;;;;;;;;;;;17.70;99.90;;;;;;4958649;28;19932;-74
2022/10/07 07:54:13;;;;;;;;;;;18.20;99.90;;;;;;4990229;28;20025;-74
2022/10/07 07:56:39;;;;;;;;;;;18.80;99.90;;;;;;4991534;28;20020;-75
2022/10/07 07:59:05;;;;;;;;;;;19.20;99.90;;;;;;4958556;28;19926;-73
2022/10/07 08:01:31;;;;;;;;;;;19.70;99.90;;;;;;5023028;28;19930;-74
2022/10/07 08:03:57;;;;;;;;;;;19.90;99.90;;;;;;4991812;28;19926;-75
2022/10/07 08:06:26;;;;;;;;;;;20.10;99.90;;;;;;4991546;28;20029;-72
2022/10/07 08:08:56;;;;;;;;;;;20.30;99.90;;;;;;4991675;28;19926;-72
2022/10/07 08:11:21;;;;;;;;;;;20.50;99.90;;;;;;4974101;28;19952;-71
2022/10/07 08:13:47;;;;;;;;;;;20.70;99.70;;;;;;4990740;28;20438;-73
2022/10/07 08:16:17;;;;;;;;;;;21.00;99.90;;;;;;4992018;28;19925;-71
2022/10/07 08:18:45;;;;;;;;;;;21.10;99.30;;;;;;4990802;28;19926;-72
2022/10/07 08:21:11;;;;;;;;;;;21.30;99.60;;;;;;4990674;28;19951;-71
2022/10/07 08:23:37;;;;;;;;;;;21.50;98.90;;;;;;4988146;28;19926;-74
2022/10/07 08:26:03;;;;;;;;;;;21.50;98.80;;;;;;4989204;28;19926;-77
2022/10/07 08:28:30;;;;;;;;;;;21.40;98.30;;;;;;4988054;28;19937;-73
2022/10/07 08:31:10;;;;;;;;;;;21.60;97.60;;;;;;4992397;28;20016;-74
2022/10/07 08:33:38;;;;;;;;;;;21.60;97.80;;;;;;4993128;28;19930;-72
2022/10/07 08:36:04;;;;;;;;;;;21.90;97.20;;;;;;4991700;28;19995;-74
2022/10/07 08:38:30;;;;;;;;;;;22.00;97.00;;;;;;4974026;28;20034;-72
2022/10/07 08:40:58;;;;;;;;;;;22.20;97.20;;;;;;4990063;28;20295;-70
2022/10/07 08:43:24;;;;;;;;;;;22.40;97.00;;;;;;4989581;28;19932;-71
2022/10/07 08:45:50;;;;;;;;;;;22.50;96.60;;;;;;4989748;28;20302;-69
2022/10/07 08:48:20;;;;;;;;;;;22.40;97.00;;;;;;4990202;28;19975;-73
2022/10/07 08:50:50;;;;;;;;;;;22.60;96.90;;;;;;4990888;28;20295;-69
2022/10/07 08:53:29;;;;;;;;;;;22.60;96.50;;;;;;4991089;28;19930;-69
2022/10/07 08:56:00;;;;;;;;;;;22.00;96.40;;;;;;4991368;28;19971;-68
2022/10/07 08:58:25;;;;;;;;;;;21.30;97.10;;;;;;4990492;28;20080;-76
2022/10/07 09:00:58;;;;;;;;;;;20.70;97.60;;;;;;4973756;28;20275;-69
2022/10/07 09:03:34;;;;;;;;;;;20.20;98.10;;;;;;4990667;28;19957;-73
2022/10/07 09:06:03;;;;;;;;;;;19.80;98.50;;;;;;4990948;28;20359;-69
2022/10/07 09:08:35;;;;;;;;;;;19.40;98.90;;;;;;4989192;28;19979;-71
2022/10/07 09:11:14;;;;;;;;;;;19.10;99.60;;;;;;4991083;28;19932;-70
2022/10/07 09:13:42;;;;;;;;;;;18.80;99.90;;;;;;4990201;28;19975;-72
2022/10/07 09:16:08;;;;;;;;;;;18.50;99.90;;;;;;5022618;28;19926;-70
2022/10/07 09:18:34;;;;;;;;;;;18.30;99.90;;;;;;4990370;28;19926;-69
2022/10/07 09:21:02;;;;;;;;;;;18.20;99.90;;;;;;4990189;28;19976;-72
2022/10/07 09:23:28;;;;;;;;;;;18.10;99.90;;;;;;4990920;28;19933;-76
2022/10/07 09:25:54;;;;;;;;;;;;;;;;;;5006447;28;20024;-71
2022/10/07 09:28:24;;;;;;;;;;;18.00;99.90;;;;;;4990547;28;20351;-70
2022/10/07 09:30:49;;;;;;;;;;;17.70;99.90;;;;;;4990298;28;19949;-70
2022/10/07 09:33:17;;;;;;;;;;;17.50;99.90;;;;;;4973652;28;20313;-70
2022/10/07 09:35:51;;;;;;;;;;;17.50;99.90;;;;;;4990136;28;20363;-70
2022/10/07 09:38:27;;;;;;;;;;;17.40;99.90;;;;;;4989638;28;19937;-70
2022/10/07 09:41:15;;;;;;;;;;;17.40;99.90;;;;;;4989657;28;19979;-69
2022/10/07 09:44:01;;;;;;;;;;;17.50;99.90;;;;;;4988458;28;19941;-68
2022/10/07 09:46:39;;;;;;;;;;;17.40;99.90;;;;;;4988872;28;19980;-71
2022/10/07 09:49:06;;;;;;;;;;;17.50;99.90;;;;;;4988547;28;19925;-73
2022/10/07 09:51:34;;;;;;;;;;;17.50;99.90;;;;;;4990159;28;19926;-79
2022/10/07 09:54:01;;;;;;;;;;;17.50;99.90;;;;;;5005835;28;19932;-77
2022/10/07 09:56:35;;;;;;;;;;;17.60;99.90;;;;;;4990741;28;20248;-72
2022/10/07 09:59:33;;;;;;;;;;;17.50;99.90;;;;;;5022006;28;20340;-69
2022/10/07 10:02:16;;;;;;;;;;;17.50;99.90;;;;;;5022042;28;19926;-68
2022/10/07 10:04:46;;;;;;;;;;;17.50;99.90;;;;;;4975864;28;19925;-68
2022/10/07 10:07:17;;;;;;;;;;;17.60;99.90;;;;;;5022881;28;20294;-69
2022/10/07 10:09:53;;;;;;;;;;;17.70;99.90;;;;;;4988954;28;20315;-69
2022/10/07 10:12:19;;;;;;;;;;;17.70;99.90;;;;;;4988843;28;20341;-69
2022/10/07 10:14:47;;;;;;;;;;;17.80;99.90;;;;;;4990217;28;19926;-71
2022/10/07 10:17:21;;;;;;;;;;;17.70;99.90;;;;;;4990025;28;20290;-67
2022/10/07 10:19:47;;;;;;;;;;;17.70;99.90;;;;;;4990038;28;20020;-68
2022/10/07 10:22:26;;;;;;;;;;;17.80;99.90;;;;;;4989105;28;19929;-69
2022/10/07 10:27:39;;;;;;;;;;;17.80;99.90;;;;;;4989862;28;19926;-71
2022/10/07 10:30:20;;;;;;;;;;;17.90;99.90;;;;;;4989967;28;19933;-69
2022/10/07 10:32:56;;;;;;;;;;;17.90;99.90;;;;;;4989436;28;19947;-69
2022/10/07 10:35:22;;;;;;;;;;;17.90;99.90;;;;;;4990465;28;19932;-68
2022/10/07 10:37:59;;;;;;;;;;;18.00;99.90;;;;;;4989695;28;19926;-68
2022/10/07 10:40:46;;;;;;;;;;;18.00;99.90;;;;;;4989086;28;19939;-74
2022/10/07 10:43:29;;;;;;;;;;;18.00;99.90;;;;;;5021567;28;19963;-67
2022/10/07 10:46:14;;;;;;;;;;;18.00;99.90;;;;;;4988838;28;19926;-70
2022/10/07 10:48:46;;;;;;;;;;;18.00;99.90;;;;;;5004193;28;20013;-70
2022/10/07 10:51:44;;;;;;;;;;;18.00;99.90;;;;;;5021502;28;19976;-70
2022/10/07 10:54:18;;;;;;;;;;;18.10;99.90;;;;;;4989869;28;20021;-70
2022/10/07 10:56:53;;;;;;;;;;;18.00;99.90;;;;;;5021461;28;20035;-72
2022/10/07 10:59:31;;;;;;;;;;;18.00;99.90;;;;;;4972712;28;19930;-70
2022/10/07 11:02:16;;;;;;;;;;;18.00;99.90;;;;;;4987982;28;20397;-70
2022/10/07 11:04:48;;;;;;;;;;;17.90;99.90;;;;;;5004952;28;19983;-73
2022/10/07 11:07:23;;;;;;;;;;;17.90;99.90;;;;;;4972507;28;19926;-71
2022/10/07 11:09:56;;;;;;;;;;;17.80;99.90;;;;;;4988442;28;19926;-70
2022/10/07 11:12:29;;;;;;;;;;;17.90;99.90;;;;;;4974450;28;20012;-71
2022/10/07 11:15:05;;;;;;;;;;;18.00;99.90;;;;;;4991463;28;19925;-70
2022/10/07 11:17:33;;;;;;;;;;;18.00;99.90;;;;;;4975754;28;19973;-70
2022/10/07 11:20:03;;;;;;;;;;;18.00;99.90;;;;;;4991766;28;19926;-70
2022/10/07 11:22:33;;;;;;;;;;;18.10;99.90;;;;;;4991790;28;20378;-70
2022/10/07 11:25:06;;;;;;;;;;;18.20;99.90;;;;;;4975415;28;19926;-72
2022/10/07 11:27:33;;;;;;;;;;;18.10;99.90;;;;;;4994870;28;19926;-72
2022/10/07 11:30:01;;;;;;;;;;;18.20;99.90;;;;;;4997053;28;19926;-70
2022/10/07 11:32:30;;;;;;;;;;;18.20;99.90;;;;;;4994218;28;19926;-70
2022/10/07 11:35:02;;;;;;;;;;;18.30;99.90;;;;;;4992892;28;19949;-69
2022/10/07 11:37:27;;;;;;;;;;;18.30;99.90;;;;;;5008080;28;19956;-71
2022/10/07 11:39:53;;;;;;;;;;;18.30;99.90;;;;;;4991409;28;20355;-72
2022/10/07 11:42:21;;;;;;;;;;;18.30;99.90;;;;;;4991460;28;20371;-70
2022/10/07 11:45:01;;;;;;;;;;;18.40;99.90;;;;;;4992321;28;19930;-72
2022/10/07 11:47:30;;;;;;;;;;;18.40;99.90;;;;;;4991275;28;19984;-69
2022/10/07 11:50:01;;;;;;;;;;;18.50;99.90;;;;;;4992073;28;19936;-69
2022/10/07 11:52:30;;;;;;;;;;;18.50;99.90;;;;;;4991715;28;19933;-72
2022/10/07 11:55:04;;;;;;;;;;;18.40;99.90;;;;;;4992157;28;19933;-70
2022/10/07 11:57:31;;;;;;;;;;;18.30;99.90;;;;;;4975063;28;19926;-70
2022/10/07 11:59:57;;;;;;;;;;;18.20;99.90;;;;;;4990906;28;20016;-70
2022/10/07 12:02:29;;;;;;;;;;;18.20;99.90;;;;;;4992364;28;20020;-70
2022/10/07 12:04:58;;;;;;;;;;;18.20;99.90;;;;;;4992045;28;19926;-72
2022/10/07 12:07:30;;;;;;;;;;;18.20;99.90;;;;;;5023629;28;20036;-71
2022/10/07 12:10:05;;;;;;;;;;;18.20;99.90;;;;;;4990674;28;20508;-71
2022/10/07 12:12:43;;;;;;;;;;;18.20;99.90;;;;;;4992190;28;19995;-70
2022/10/07 12:15:21;;;;;;;;;;;18.20;99.90;;;;;;4974749;28;19926;-70
2022/10/07 12:18:02;;;;;;;;;;;18.10;99.90;;;;;;4990947;28;19926;-70
2022/10/07 12:20:33;;;;;;;;;;;18.10;99.90;;;;;;4991153;28;19975;-70
2022/10/07 12:25:45;;;;;;;;;;;18.20;99.90;;;;;;4990670;28;19926;-70
2022/10/07 12:28:15;;;;;;;;;;;18.20;99.90;;;;;;4990613;28;20363;-70
2022/10/07 12:30:49;;;;;;;;;;;18.20;99.90;;;;;;5023834;28;20291;-70
2022/10/07 12:33:27;;;;;;;;;;;18.30;99.90;;;;;;4990529;28;19965;-69
2022/10/07 12:35:52;;;;;;;;;;;18.30;99.90;;;;;;4990847;28;20374;-70
2022/10/07 12:38:21;;;;;;;;;;;18.30;99.90;;;;;;4991465;28;19937;-70
2022/10/07 12:40:50;;;;;;;;;;;18.20;99.90;;;;;;4991640;28;19926;-70
2022/10/07 12:43:34;;;;;;;;;;;18.20;99.90;;;;;;4991253;28;19975;-69
2022/10/07 12:46:03;;;;;;;;;;;18.10;99.90;;;;;;4991232;28;19933;-69
2022/10/07 12:48:33;;;;;;;;;;;17.90;99.90;;;;;;4990256;28;19971;-70
2022/10/07 12:51:00;;;;;;;;;;;18.00;99.90;;;;;;4990303;28;19977;-70
2022/10/07 12:53:29;;;;;;;;;;;17.90;99.90;;;;;;4991123;28;19930;-70
2022/10/07 12:55:55;;;;;;;;;;;17.90;99.90;;;;;;4992015;28;19933;-70
2022/10/07 13:01:36;;;;;;;;;;;18.00;99.90;;;;;;4991314;28;19965;-70
2022/10/07 13:04:05;;;;;;;;;;;18.00;99.90;;;;;;4991389;28;19979;-70
2022/10/07 13:06:49;;;;;;;;;;;18.00;99.90;;;;;;4991213;28;19981;-70
2022/10/07 13:09:20;;;;;;;;;;;18.00;99.90;;;;;;4991052;28;19951;-70
2022/10/07 13:11:58;;;;;;;;;;;18.00;99.90;;;;;;4990784;28;19952;-71
2022/10/07 13:14:24;;;;;;;;;;;18.00;99.90;;;;;;4990164;28;20002;-71
2022/10/07 13:17:08;;;;;;;;;;;18.00;99.90;;;;;;4991113;28;19973;-70
2022/10/07 13:19:42;;;;;;;;;;;17.90;99.90;;;;;;4991261;28;19926;-71
2022/10/07 13:22:11;;;;;;;;;;;17.90;99.90;;;;;;4990956;28;20030;-70
2022/10/07 13:24:38;;;;;;;;;;;17.90;99.90;;;;;;4974065;28;19933;-72
2022/10/07 13:27:06;;;;;;;;;;;17.90;99.90;;;;;;4990809;28;19932;-71
2022/10/07 13:29:32;;;;;;;;;;;17.90;99.90;;;;;;4989554;28;19926;-69
2022/10/07 13:32:26;;;;;;;;;;;17.90;99.90;;;;;;5006340;28;19933;-70
2022/10/07 13:34:52;;;;;;;;;;;17.90;99.90;;;;;;4992280;28;19925;-70
2022/10/07 13:37:24;;;;;;;;;;;17.90;99.90;;;;;;4989538;28;19937;-71
2022/10/07 13:39:49;;;;;;;;;;;17.90;99.90;;;;;;4973479;28;20329;-70
2022/10/07 13:42:15;;;;;;;;;;;17.90;99.90;;;;;;4990392;28;19930;-70
2022/10/07 13:44:42;;;;;;;;;;;17.90;99.90;;;;;;4990446;28;19987;-70
2022/10/07 13:47:16;;;;;;;;;;;17.90;99.90;;;;;;4989078;28;19973;-70
2022/10/07 13:49:42;;;;;;;;;;;18.00;99.90;;;;;;4990395;28;20298;-71
2022/10/07 13:52:18;;;;;;;;;;;17.90;99.90;;;;;;4990083;28;19925;-70
2022/10/07 13:54:48;;;;;;;;;;;18.00;99.90;;;;;;4989932;28;19981;-70
2022/10/07 13:57:14;;;;;;;;;;;17.90;99.90;;;;;;4989382;28;19925;-70
2022/10/07 13:59:40;;;;;;;;;;;17.80;99.90;;;;;;4989231;28;20333;-69
2022/10/07 14:02:06;;;;;;;;;;;17.80;99.90;;;;;;4990545;28;19955;-70
2022/10/07 14:04:32;;;;;;;;;;;17.80;99.90;;;;;;4990563;28;20260;-69
2022/10/07 14:07:10;;;;;;;;;;;17.80;99.90;;;;;;4988879;28;19933;-70
2022/10/07 14:09:47;;;;;;;;;;;17.80;99.90;;;;;;4988474;28;20032;-69
2022/10/07 14:12:15;;;;;;;;;;;17.80;99.90;;;;;;4990170;28;19926;-70
2022/10/07 14:14:43;;;;;;;;;;;17.70;99.90;;;;;;4990434;28;20032;-70
2022/10/07 14:17:15;;;;;;;;;;;17.70;99.90;;;;;;4989547;28;19960;-70
2022/10/07 14:19:41;;;;;;;;;;;17.70;99.90;;;;;;4991128;28;20394;-70
2022/10/07 14:22:18;;;;;;;;;;;17.70;99.90;;;;;;4989343;28;19926;-71
2022/10/07 14:24:51;;;;;;;;;;;17.70;99.90;;;;;;4990252;28;19926;-70
2022/10/07 14:27:36;;;;;;;;;;;17.80;99.90;;;;;;4988692;28;20365;-70
2022/10/07 14:30:02;;;;;;;;;;;17.80;99.90;;;;;;4988892;28;19922;-69
2022/10/07 14:35:18;;;;;;;;;;;17.70;99.90;;;;;;4989184;28;20371;-70
2022/10/07 14:37:44;;;;;;;;;;;17.70;99.90;;;;;;4972612;28;20013;-69
2022/10/07 14:40:22;;;;;;;;;;;17.70;99.90;;;;;;5005303;28;20004;-71
2022/10/07 14:42:54;;;;;;;;;;;17.70;99.90;;;;;;5005018;28;19926;-65
2022/10/07 14:45:21;;;;;;;;;;;17.70;99.90;;;;;;4989390;28;20172;-65
2022/10/07 14:47:47;;;;;;;;;;;17.70;99.90;;;;;;4992249;28;19926;-64
2022/10/07 14:50:15;;;;;;;;;;;17.70;99.90;;;;;;4975168;28;20334;-65
2022/10/07 14:52:44;;;;;;;;;;;17.70;99.90;;;;;;4992070;28;19926;-66